createdAt,value
2022-08-14T00:00:46.142Z,26.60
2022-08-14T00:03:21.426Z,26.60
2022-08-14T00:06:00.433Z,26.50
2022-08-14T00:08:44.490Z,26.50
2022-08-14T00:11:15.592Z,26.30
2022-08-14T00:13:53.012Z,26.30
2022-08-14T00:16:44.204Z,26.20
2022-08-14T00:19:19.057Z,26.10
2022-08-14T00:21:49.966Z,26.10
2022-08-14T00:24:22.886Z,26.10
2022-08-14T00:26:55.645Z,26.10
2022-08-14T00:29:25.687Z,26.10
2022-08-14T00:31:56.791Z,26.10
2022-08-14T00:34:35.520Z,26.10
2022-08-14T00:37:14.891Z,26.20
2022-08-14T00:39:43.743Z,26.10
2022-08-14T00:42:52.699Z,26.00
2022-08-14T00:45:14.973Z,25.90
2022-08-14T00:47:45.329Z,25.90
2022-08-14T00:50:18.176Z,26.00
2022-08-14T00:52:50.807Z,26.00
2022-08-14T00:55:23.381Z,26.00
2022-08-14T00:58:09.827Z,25.90
2022-08-14T01:00:47.576Z,25.90
2022-08-14T01:03:21.782Z,25.80
2022-08-14T01:05:53.968Z,25.80
2022-08-14T01:08:51.557Z,25.70
2022-08-14T01:11:19.051Z,25.60
2022-08-14T01:13:56.002Z,25.60
2022-08-14T01:16:31.492Z,25.50
2022-08-14T01:19:20.536Z,25.40
2022-08-14T01:21:53.422Z,25.40
2022-08-14T01:24:30.836Z,25.50
2022-08-14T01:27:08.435Z,25.40
2022-08-14T01:32:35.629Z,25.40
2022-08-14T01:35:19.688Z,25.50
2022-08-14T01:37:59.967Z,25.50
2022-08-14T01:40:36.519Z,25.60
2022-08-14T01:43:18.621Z,25.60
2022-08-14T01:46:05.882Z,25.60
2022-08-14T01:48:37.103Z,25.50
2022-08-14T01:51:19.132Z,25.40
2022-08-14T01:53:55.873Z,25.40
2022-08-14T01:56:37.310Z,25.30
2022-08-14T01:59:09.960Z,25.20
2022-08-14T02:01:58.187Z,25.20
2022-08-14T02:04:54.519Z,25.20
2022-08-14T02:07:27.335Z,25.20
2022-08-14T02:10:19.500Z,25.30
2022-08-14T02:12:57.547Z,25.30
2022-08-14T02:15:28.005Z,25.40
2022-08-14T02:17:58.738Z,25.40
2022-08-14T02:20:27.729Z,25.30
2022-08-14T02:22:58.538Z,25.30
2022-08-14T02:25:32.105Z,25.30
2022-08-14T02:28:22.295Z,25.30
2022-08-14T02:30:52.424Z,25.20
2022-08-14T02:33:21.290Z,25.20
2022-08-14T02:35:53.319Z,25.20
2022-08-14T02:38:30.348Z,25.30
2022-08-14T02:41:09.033Z,25.20
2022-08-14T02:43:46.422Z,25.20
2022-08-14T02:46:20.727Z,25.10
2022-08-14T02:49:04.320Z,25.00
2022-08-14T02:51:36.527Z,24.90
2022-08-14T02:54:10.033Z,24.80
2022-08-14T02:57:16.012Z,24.80
2022-08-14T02:59:34.187Z,24.70
2022-08-14T03:02:04.884Z,24.70
2022-08-14T03:04:35.252Z,24.70
2022-08-14T03:07:07.184Z,24.60
2022-08-14T03:09:42.080Z,24.50
2022-08-14T03:12:32.867Z,24.40
2022-08-14T03:15:14.037Z,24.40
2022-08-14T03:17:56.340Z,24.40
2022-08-14T03:20:29.183Z,24.40
2022-08-14T03:23:03.312Z,24.30
2022-08-14T03:25:33.510Z,24.30
2022-08-14T03:28:07.696Z,24.40
2022-08-14T03:30:42.947Z,24.30
2022-08-14T03:33:14.240Z,24.30
2022-08-14T03:36:00.330Z,24.30
2022-08-14T03:39:12.968Z,24.30
2022-08-14T03:41:34.211Z,24.20
2022-08-14T03:45:27.495Z,24.20
2022-08-14T03:46:56.307Z,24.20
2022-08-14T03:49:28.844Z,24.20
2022-08-14T03:52:17.836Z,24.20
2022-08-14T03:54:56.348Z,24.10
2022-08-14T03:57:30.245Z,24.10
2022-08-14T04:00:04.928Z,24.00
2022-08-14T04:02:47.166Z,24.00
2022-08-14T04:05:16.644Z,24.00
2022-08-14T04:08:00.245Z,24.00
2022-08-14T04:10:36.853Z,24.10
2022-08-14T04:13:06.874Z,24.10
2022-08-14T04:15:56.707Z,24.20
2022-08-14T04:18:25.865Z,24.10
2022-08-14T04:20:55.982Z,24.10
2022-08-14T04:23:29.156Z,24.00
2022-08-14T04:26:02.873Z,24.00
2022-08-14T04:29:07.369Z,24.00
2022-08-14T04:32:57.528Z,24.00
2022-08-14T04:34:20.574Z,24.10
2022-08-14T04:37:10.527Z,24.10
2022-08-14T04:39:57.924Z,24.20
2022-08-14T04:42:51.579Z,24.30
2022-08-14T04:45:24.527Z,24.40
2022-08-14T04:48:12.624Z,24.60
2022-08-14T04:50:45.463Z,24.70
2022-08-14T04:53:35.425Z,24.80
2022-08-14T04:56:10.694Z,25.00
2022-08-14T04:59:01.624Z,25.20
2022-08-14T05:01:33.890Z,25.40
2022-08-14T05:04:16.061Z,25.50
2022-08-14T05:06:49.245Z,25.60
2022-08-14T05:09:20.453Z,25.70
2022-08-14T05:11:51.548Z,25.80
2022-08-14T05:14:43.244Z,25.90
2022-08-14T05:17:12.133Z,26.00
2022-08-14T05:19:44.991Z,26.10
2022-08-14T05:22:33.031Z,26.20
2022-08-14T05:25:04.343Z,26.40
2022-08-14T05:27:32.690Z,26.50
2022-08-14T05:30:08.456Z,26.70
2022-08-14T05:32:37.037Z,26.90
2022-08-14T05:35:08.017Z,27.00
2022-08-14T05:37:36.347Z,27.20
2022-08-14T05:40:11.155Z,27.30
2022-08-14T05:42:46.423Z,27.40
2022-08-14T05:45:20.920Z,27.50
2022-08-14T05:47:53.174Z,27.50
2022-08-14T05:50:22.947Z,27.50
2022-08-14T05:52:52.359Z,27.80
2022-08-14T05:55:24.236Z,27.90
2022-08-14T05:57:54.759Z,27.90
2022-08-14T06:00:32.620Z,28.10
2022-08-14T06:03:14.837Z,28.10
2022-08-14T06:05:45.194Z,28.10
2022-08-14T06:08:31.410Z,28.20
2022-08-14T06:11:09.071Z,28.20
2022-08-14T06:13:44.457Z,28.40
2022-08-14T06:16:17.861Z,28.70
2022-08-14T06:18:48.665Z,29.00
2022-08-14T06:21:23.145Z,29.20
2022-08-14T06:23:52.323Z,29.40
2022-08-14T06:26:22.562Z,29.70
2022-08-14T06:28:59.961Z,30.10
2022-08-14T06:31:28.339Z,30.40
2022-08-14T06:35:02.971Z,30.60
2022-08-14T06:36:47.759Z,30.60
2022-08-14T06:39:17.259Z,30.80
2022-08-14T06:41:59.527Z,31.10
2022-08-14T06:44:33.080Z,31.10
2022-08-14T06:47:03.183Z,31.00
2022-08-14T06:49:40.453Z,31.10
2022-08-14T06:52:16.684Z,30.90
2022-08-14T06:54:48.773Z,30.50
2022-08-14T06:57:21.685Z,30.40
2022-08-14T06:59:51.377Z,30.40
2022-08-14T07:02:36.992Z,30.10
2022-08-14T07:05:29.300Z,30.20
2022-08-14T07:08:00.642Z,30.40
2022-08-14T07:10:29.345Z,30.30
2022-08-14T07:13:03.902Z,30.20
2022-08-14T07:15:40.036Z,29.90
2022-08-14T07:18:13.525Z,29.80
2022-08-14T07:20:45.679Z,29.70
2022-08-14T07:23:20.591Z,29.60
2022-08-14T07:25:51.896Z,29.40
2022-08-14T07:28:25.786Z,29.40
2022-08-14T07:31:04.893Z,29.50
2022-08-14T07:33:36.512Z,29.50
2022-08-14T07:36:27.144Z,29.60
2022-08-14T07:39:02.913Z,29.60
2022-08-14T07:41:44.509Z,29.70
2022-08-14T07:44:33.066Z,29.60
2022-08-14T07:47:07.800Z,29.80
2022-08-14T07:49:37.845Z,30.20
2022-08-14T07:52:06.296Z,30.50
2022-08-14T07:54:38.829Z,30.70
2022-08-14T07:57:12.053Z,30.80
2022-08-14T07:59:44.247Z,30.80
2022-08-14T08:02:17.123Z,30.70
2022-08-14T08:04:54.019Z,30.50
2022-08-14T08:07:29.452Z,30.40
2022-08-14T08:10:02.286Z,30.50
2022-08-14T08:12:32.780Z,30.90
2022-08-14T08:15:07.329Z,31.10
2022-08-14T08:17:38.262Z,31.40
2022-08-14T08:20:20.089Z,31.70
2022-08-14T08:22:49.955Z,31.80
2022-08-14T08:25:27.179Z,32.00
2022-08-14T08:28:00.957Z,32.40
2022-08-14T08:30:45.029Z,32.60
2022-08-14T08:33:19.291Z,32.70
2022-08-14T08:35:50.680Z,32.80
2022-08-14T08:39:15.556Z,33.00
2022-08-14T08:41:14.178Z,33.20
2022-08-14T08:43:46.132Z,33.20
2022-08-14T08:46:23.922Z,33.20
2022-08-14T08:51:31.120Z,33.50
2022-08-14T08:54:06.640Z,33.70
2022-08-14T08:56:43.195Z,33.80
2022-08-14T08:59:30.731Z,33.80
2022-08-14T09:02:11.308Z,34.20
2022-08-14T09:04:45.718Z,34.50
2022-08-14T09:07:27.371Z,34.50
2022-08-14T09:09:58.995Z,34.50
2022-08-14T09:12:35.674Z,34.40
2022-08-14T09:15:09.089Z,34.50
2022-08-14T09:17:42.122Z,34.60
2022-08-14T09:20:25.808Z,34.60
2022-08-14T09:22:59.460Z,34.90
2022-08-14T09:26:00.958Z,35.10
2022-08-14T09:28:24.207Z,35.50
2022-08-14T09:30:55.889Z,35.70
2022-08-14T09:33:56.397Z,36.10
2022-08-14T09:36:45.476Z,36.20
2022-08-14T09:39:30.262Z,36.10
2022-08-14T09:42:33.110Z,35.70
2022-08-14T09:45:25.861Z,35.40
2022-08-14T09:48:00.561Z,35.20
2022-08-14T09:50:33.100Z,35.30
2022-08-14T09:53:05.680Z,35.20
2022-08-14T09:56:00.432Z,35.10
2022-08-14T09:58:38.963Z,35.20
2022-08-14T10:01:14.165Z,35.10
2022-08-14T10:03:53.689Z,35.10
2022-08-14T10:06:29.718Z,35.20
2022-08-14T10:09:04.274Z,35.10
2022-08-14T10:11:36.142Z,35.00
2022-08-14T10:14:29.053Z,34.80
2022-08-14T10:17:08.737Z,34.90
2022-08-14T10:19:48.748Z,35.00
2022-08-14T10:23:15.472Z,34.90
2022-08-14T10:25:16.646Z,34.90
2022-08-14T10:27:47.464Z,34.80
2022-08-14T10:30:38.117Z,34.80
2022-08-14T10:33:08.228Z,34.90
2022-08-14T10:35:48.174Z,34.90
2022-08-14T10:38:28.495Z,35.00
2022-08-14T10:41:13.603Z,34.90
2022-08-14T10:43:43.771Z,35.10
2022-08-14T10:47:36.697Z,35.60
2022-08-14T10:49:17.523Z,35.90
2022-08-14T10:52:04.107Z,36.00
2022-08-14T10:54:37.255Z,36.10
2022-08-14T10:57:25.069Z,36.20
2022-08-14T10:59:57.299Z,36.10
2022-08-14T11:02:44.761Z,35.80
2022-08-14T11:05:23.655Z,35.40
2022-08-14T11:08:01.060Z,35.60
2022-08-14T11:10:46.164Z,35.90
2022-08-14T11:13:19.726Z,36.10
2022-08-14T11:15:51.359Z,35.80
2022-08-14T11:18:32.386Z,35.80
2022-08-14T11:21:15.382Z,35.60
2022-08-14T11:23:45.990Z,35.40
2022-08-14T11:26:19.086Z,35.30
2022-08-14T11:28:53.812Z,35.40
2022-08-14T11:31:25.862Z,35.80
2022-08-14T11:33:58.498Z,35.70
2022-08-14T11:36:57.212Z,35.70
2022-08-14T11:39:33.346Z,35.50
2022-08-14T11:42:56.299Z,35.40
2022-08-14T11:44:56.807Z,35.30
2022-08-14T11:47:35.219Z,35.30
2022-08-14T11:50:25.126Z,35.50
2022-08-14T11:53:08.593Z,35.40
2022-08-14T11:55:42.770Z,35.10
2022-08-14T11:58:15.685Z,34.90
2022-08-14T12:00:55.444Z,35.10
2022-08-14T12:03:51.618Z,35.30
2022-08-14T12:06:39.258Z,35.70
2022-08-14T12:09:14.918Z,35.60
2022-08-14T12:11:46.906Z,35.40
2022-08-14T12:14:30.778Z,35.10
2022-08-14T12:17:12.846Z,34.70
2022-08-14T12:19:50.950Z,34.50
2022-08-14T12:22:52.394Z,34.40
2022-08-14T12:25:25.162Z,34.50
2022-08-14T12:28:01.149Z,34.70
2022-08-14T12:30:39.339Z,34.80
2022-08-14T12:33:23.887Z,34.70
2022-08-14T12:35:56.348Z,34.90
2022-08-14T12:38:39.098Z,34.90
2022-08-14T12:41:16.474Z,35.00
2022-08-14T12:43:53.849Z,35.10
2022-08-14T12:46:30.894Z,34.70
2022-08-14T12:49:02.400Z,34.70
2022-08-14T12:51:32.476Z,34.70
2022-08-14T12:54:02.470Z,34.80
2022-08-14T12:56:34.548Z,34.90
2022-08-14T12:59:05.929Z,35.00
2022-08-14T13:01:56.727Z,35.20
2022-08-14T13:04:31.649Z,35.40
2022-08-14T13:07:07.404Z,35.60
2022-08-14T13:09:38.165Z,35.60
2022-08-14T13:12:32.602Z,35.70
2022-08-14T13:15:02.268Z,35.80
2022-08-14T13:17:43.048Z,36.00
2022-08-14T13:20:24.423Z,36.00
2022-08-14T13:22:56.272Z,35.90
2022-08-14T13:25:29.205Z,35.80
2022-08-14T13:28:01.413Z,35.60
2022-08-14T13:30:30.352Z,35.60
2022-08-14T13:33:00.794Z,35.60
2022-08-14T13:35:29.851Z,35.60
2022-08-14T13:38:00.311Z,35.40
2022-08-14T13:40:31.803Z,35.40
2022-08-14T13:43:02.832Z,35.40
2022-08-14T13:45:59.990Z,35.40
2022-08-14T13:48:32.427Z,35.50
2022-08-14T13:51:10.723Z,35.60
2022-08-14T13:54:07.165Z,35.50
2022-08-14T13:56:40.206Z,35.40
2022-08-14T13:59:13.038Z,35.40
2022-08-14T14:01:54.839Z,35.20
2022-08-14T14:04:27.587Z,35.20
2022-08-14T14:06:56.225Z,35.20
2022-08-14T14:09:32.530Z,35.30
2022-08-14T14:12:37.690Z,35.30
2022-08-14T14:15:06.894Z,35.50
2022-08-14T14:17:41.463Z,35.40
2022-08-14T14:20:34.505Z,35.40
2022-08-14T14:23:10.512Z,35.40
2022-08-14T14:25:48.559Z,35.40
2022-08-14T14:28:24.514Z,35.20
2022-08-14T14:30:57.404Z,35.10
2022-08-14T14:33:49.869Z,35.10
2022-08-14T14:36:26.716Z,35.10
2022-08-14T14:38:58.598Z,34.90
2022-08-14T14:41:37.961Z,35.00
2022-08-14T14:44:13.588Z,34.90
2022-08-14T14:46:50.974Z,35.00
2022-08-14T14:49:21.932Z,34.70
2022-08-14T14:51:51.517Z,34.60
2022-08-14T14:54:32.070Z,34.70
2022-08-14T14:57:09.366Z,34.70
2022-08-14T14:59:41.545Z,34.70
2022-08-14T15:02:22.704Z,34.70
2022-08-14T15:04:52.175Z,34.80
2022-08-14T15:07:26.457Z,34.80
2022-08-14T15:09:58.167Z,34.80
2022-08-14T15:12:55.939Z,34.70
2022-08-14T15:15:18.468Z,34.50
2022-08-14T15:17:50.270Z,34.60
2022-08-14T15:20:29.771Z,34.40
2022-08-14T15:23:12.232Z,34.40
2022-08-14T15:25:41.801Z,34.10
2022-08-14T15:28:12.912Z,34.10
2022-08-14T15:30:44.187Z,34.20
2022-08-14T15:33:15.501Z,34.10
2022-08-14T15:35:46.560Z,34.20
2022-08-14T15:38:17.936Z,34.30
2022-08-14T15:40:51.465Z,34.10
2022-08-14T15:43:27.378Z,34.10
2022-08-14T15:45:59.630Z,34.20
2022-08-14T15:48:32.704Z,34.30
2022-08-14T15:51:03.393Z,34.10
2022-08-14T15:53:35.034Z,34.20
2022-08-14T15:56:06.202Z,34.10
2022-08-14T15:58:38.437Z,34.00
2022-08-14T16:01:43.589Z,33.90
2022-08-14T16:04:12.094Z,33.70
2022-08-14T16:06:45.926Z,33.70
2022-08-14T16:09:26.869Z,33.60
2022-08-14T16:11:55.691Z,33.60
2022-08-14T16:14:26.732Z,33.60
2022-08-14T16:17:00.142Z,33.50
2022-08-14T16:19:32.677Z,33.60
2022-08-14T16:22:58.803Z,33.20
2022-08-14T16:25:05.233Z,33.20
2022-08-14T16:27:41.267Z,33.00
2022-08-14T16:30:24.494Z,33.00
2022-08-14T16:32:57.024Z,32.90
2022-08-14T16:35:43.139Z,32.90
2022-08-14T16:38:45.273Z,32.80
2022-08-14T16:41:23.866Z,32.80
2022-08-14T16:43:59.192Z,32.80
2022-08-14T16:46:32.848Z,32.80
2022-08-14T16:49:07.745Z,32.90
2022-08-14T16:51:40.966Z,33.00
2022-08-14T16:54:20.757Z,32.80
2022-08-14T16:57:20.777Z,32.80
2022-08-14T16:59:57.397Z,32.70
2022-08-14T17:02:37.257Z,32.80
2022-08-14T17:05:22.063Z,32.90
2022-08-14T17:08:41.367Z,32.60
2022-08-14T17:11:11.177Z,32.40
2022-08-14T17:13:58.677Z,32.20
2022-08-14T17:16:37.243Z,32.20
2022-08-14T17:19:13.808Z,32.10
2022-08-14T17:21:47.044Z,32.10
2022-08-14T17:24:57.088Z,32.00
2022-08-14T17:27:09.179Z,32.10
2022-08-14T17:29:56.812Z,32.00
2022-08-14T17:32:56.245Z,32.00
2022-08-14T17:35:57.888Z,31.90
2022-08-14T17:38:38.265Z,31.70
2022-08-14T17:41:24.064Z,31.60
2022-08-14T17:44:12.684Z,31.50
2022-08-14T17:46:55.027Z,31.40
2022-08-14T17:49:28.181Z,31.30
2022-08-14T17:52:07.813Z,31.30
2022-08-14T17:54:52.690Z,31.20
2022-08-14T17:57:40.596Z,31.20
2022-08-14T18:00:14.989Z,31.10
2022-08-14T18:02:50.429Z,31.20
2022-08-14T18:05:23.756Z,31.20
2022-08-14T18:08:31.966Z,31.10
2022-08-14T18:11:03.313Z,31.00
2022-08-14T18:13:50.859Z,30.70
2022-08-14T18:16:22.376Z,30.60
2022-08-14T18:18:53.259Z,30.60
2022-08-14T18:21:41.815Z,30.60
2022-08-14T18:24:28.180Z,30.50
2022-08-14T18:27:08.938Z,30.50
2022-08-14T18:29:55.488Z,30.40
2022-08-14T18:32:47.579Z,30.40
2022-08-14T18:35:58.131Z,30.20
2022-08-14T18:38:46.128Z,30.30
2022-08-14T18:41:37.353Z,30.30
2022-08-14T18:44:10.762Z,30.30
2022-08-14T18:47:21.333Z,30.30
2022-08-14T18:50:26.401Z,30.20
2022-08-14T18:53:07.070Z,30.10
2022-08-14T18:55:53.879Z,29.90
2022-08-14T18:58:31.099Z,29.70
2022-08-14T19:01:04.691Z,29.60
2022-08-14T19:04:08.479Z,29.50
2022-08-14T19:06:56.695Z,29.30
2022-08-14T19:09:57.839Z,29.20
2022-08-14T19:13:00.217Z,28.90
2022-08-14T19:15:35.472Z,28.80
2022-08-14T19:18:26.071Z,28.80
2022-08-14T19:20:58.498Z,28.80
2022-08-14T19:23:42.009Z,28.80
2022-08-14T19:26:35.496Z,28.60
2022-08-14T19:29:26.228Z,28.40
2022-08-14T19:32:40.956Z,28.40
2022-08-14T19:35:55.669Z,28.30
2022-08-14T19:38:57.509Z,28.30
2022-08-14T19:41:34.514Z,28.10
2022-08-14T19:44:14.255Z,28.00
2022-08-14T19:47:01.927Z,28.00
2022-08-14T19:50:08.022Z,28.00
2022-08-14T19:52:26.748Z,27.90
2022-08-14T19:55:02.040Z,27.80
2022-08-14T19:57:32.539Z,27.70
2022-08-14T20:00:28.579Z,27.50
2022-08-14T20:03:11.751Z,27.40
2022-08-14T20:05:45.950Z,27.30
2022-08-14T20:11:01.510Z,27.40
2022-08-14T20:12:00.509Z,27.30
2022-08-14T20:14:21.013Z,27.20
2022-08-14T20:17:04.714Z,27.20
2022-08-14T20:19:37.766Z,27.20
2022-08-14T20:22:37.121Z,27.20
2022-08-14T20:25:13.983Z,27.00
2022-08-14T20:27:59.303Z,26.80
2022-08-14T20:30:33.629Z,26.80
2022-08-14T20:33:11.424Z,26.70
2022-08-14T20:35:47.582Z,26.60
2022-08-14T20:38:31.506Z,26.60
2022-08-14T20:41:10.791Z,26.50
2022-08-14T20:44:00.786Z,26.40
2022-08-14T20:46:31.691Z,26.30
2022-08-14T20:49:03.227Z,26.30
2022-08-14T20:51:37.293Z,26.30
2022-08-14T20:54:08.383Z,26.30
2022-08-14T20:56:40.761Z,26.30
2022-08-14T20:59:17.777Z,26.40
2022-08-14T21:01:52.012Z,26.40
2022-08-14T21:04:29.857Z,26.40
2022-08-14T21:07:24.440Z,26.40
2022-08-14T21:10:05.735Z,26.40
2022-08-14T21:13:26.703Z,26.40
2022-08-14T21:15:35.887Z,26.50
2022-08-14T21:18:09.744Z,26.60
2022-08-14T21:20:39.402Z,26.70
2022-08-14T21:23:08.391Z,26.80
2022-08-14T21:25:36.976Z,26.90
2022-08-14T21:28:29.182Z,27.00
2022-08-14T21:30:59.522Z,27.00
2022-08-14T21:33:32.236Z,27.10
2022-08-14T21:36:07.869Z,27.10
2022-08-14T21:38:37.962Z,27.10
2022-08-14T21:41:42.876Z,27.10
2022-08-14T21:44:17.738Z,26.90
2022-08-14T21:46:51.304Z,27.00
2022-08-14T21:49:32.204Z,26.90
2022-08-14T21:52:49.187Z,26.90
2022-08-14T21:54:54.865Z,26.80
2022-08-14T21:57:56.412Z,26.80
2022-08-14T22:00:35.032Z,26.70
2022-08-14T22:03:09.078Z,26.80
2022-08-14T22:05:42.173Z,26.80
2022-08-14T22:08:15.178Z,26.80
2022-08-14T22:10:46.799Z,26.80
2022-08-14T22:13:19.844Z,26.70
2022-08-14T22:15:56.674Z,26.70
2022-08-14T22:18:30.008Z,26.70
2022-08-14T22:21:05.742Z,26.70
2022-08-14T22:23:35.477Z,26.70
2022-08-14T22:26:09.070Z,26.60
2022-08-14T22:28:38.102Z,26.50
2022-08-14T22:31:22.035Z,26.50
2022-08-14T22:33:57.888Z,26.50
2022-08-14T22:36:46.784Z,26.40
2022-08-14T22:39:18.656Z,26.30
2022-08-14T22:42:21.044Z,26.20
2022-08-14T22:44:51.641Z,26.30
2022-08-14T22:47:25.664Z,26.30
2022-08-14T22:50:31.597Z,26.30
2022-08-14T22:53:05.332Z,26.30
2022-08-14T22:55:36.573Z,26.30
2022-08-14T22:58:06.604Z,26.20
2022-08-14T23:00:35.551Z,26.20
2022-08-14T23:03:17.468Z,26.30
2022-08-14T23:05:52.898Z,26.20
2022-08-14T23:09:01.896Z,26.30
2022-08-14T23:11:13.019Z,26.30
2022-08-14T23:13:46.282Z,26.30
2022-08-14T23:16:20.996Z,26.30
2022-08-14T23:18:53.787Z,26.20
2022-08-14T23:21:25.028Z,26.10
2022-08-14T23:23:59.962Z,26.10
2022-08-14T23:26:48.673Z,26.00
2022-08-14T23:29:21.066Z,26.10
2022-08-14T23:31:51.074Z,26.00
2022-08-14T23:34:26.378Z,26.00
2022-08-14T23:36:59.138Z,25.90
2022-08-14T23:39:35.782Z,25.80
2022-08-14T23:42:11.539Z,25.80
2022-08-14T23:44:40.149Z,25.80
2022-08-14T23:47:26.133Z,25.80
2022-08-14T23:50:03.157Z,25.80
2022-08-14T23:52:55.476Z,25.80
2022-08-14T23:55:30.789Z,25.80
2022-08-14T23:58:00.683Z,25.80
